createdAt,value
2022-08-16T00:01:56.154Z,14.13
2022-08-16T00:04:28.111Z,12.75
2022-08-16T00:06:55.807Z,13.27
2022-08-16T00:09:23.445Z,12.68
2022-08-16T00:11:52.759Z,13.13
2022-08-16T00:14:29.122Z,13.15
2022-08-16T00:16:58.582Z,12.45
2022-08-16T00:19:41.331Z,12.57
2022-08-16T00:22:13.570Z,12.55
2022-08-16T00:24:44.893Z,13.93
2022-08-16T00:27:14.596Z,12.95
2022-08-16T00:29:42.429Z,12.23
2022-08-16T00:32:10.900Z,12.77
2022-08-16T00:34:45.131Z,12.15
2022-08-16T00:37:24.609Z,12.57
2022-08-16T00:39:57.115Z,13.00
2022-08-16T00:42:31.662Z,12.38
2022-08-16T00:45:58.209Z,12.55
2022-08-16T00:48:30.947Z,12.35
2022-08-16T00:51:02.961Z,13.02
2022-08-16T00:53:32.676Z,12.50
2022-08-16T00:56:05.217Z,11.65
2022-08-16T00:58:35.633Z,11.82
2022-08-16T01:01:08.276Z,12.52
2022-08-16T01:03:41.585Z,11.35
2022-08-16T01:06:39.698Z,12.95
2022-08-16T01:09:00.049Z,12.23
2022-08-16T01:11:29.392Z,11.70
2022-08-16T01:14:03.366Z,12.40
2022-08-16T01:16:30.994Z,12.15
2022-08-16T01:19:07.648Z,11.90
2022-08-16T01:21:52.699Z,12.40
2022-08-16T01:24:51.806Z,12.65
2022-08-16T01:27:39.473Z,12.25
2022-08-16T01:30:19.220Z,12.15
2022-08-16T01:33:01.665Z,12.00
2022-08-16T01:35:43.356Z,11.73
2022-08-16T01:38:28.427Z,11.45
2022-08-16T01:41:08.064Z,12.05
2022-08-16T01:43:38.994Z,11.40
2022-08-16T01:46:39.696Z,12.65
2022-08-16T01:50:40.703Z,11.63
2022-08-16T01:52:29.635Z,13.02
2022-08-16T01:55:17.415Z,11.98
2022-08-16T02:00:29.488Z,11.32
2022-08-16T02:02:59.507Z,11.98
2022-08-16T02:05:30.598Z,11.80
2022-08-16T02:08:00.518Z,11.75
2022-08-16T02:10:28.805Z,10.98
2022-08-16T02:13:00.708Z,10.90
2022-08-16T02:15:35.604Z,11.63
2022-08-16T02:18:12.438Z,11.13
2022-08-16T02:20:42.649Z,11.10
2022-08-16T02:23:13.863Z,11.65
2022-08-16T02:25:51.922Z,11.18
2022-08-16T02:28:23.533Z,11.13
2022-08-16T02:30:52.804Z,10.85
2022-08-16T02:33:44.050Z,11.48
2022-08-16T02:36:47.177Z,10.68
2022-08-16T02:39:07.714Z,10.57
2022-08-16T02:44:06.138Z,10.10
2022-08-16T02:46:33.911Z,11.60
2022-08-16T02:49:04.122Z,10.73
2022-08-16T02:51:35.852Z,11.07
2022-08-16T02:54:04.684Z,10.73
2022-08-16T02:56:33.095Z,11.73
2022-08-16T02:59:00.675Z,10.73
2022-08-16T03:01:36.733Z,11.10
2022-08-16T03:04:29.170Z,10.88
2022-08-16T03:07:01.753Z,10.95
2022-08-16T03:09:41.468Z,11.23
2022-08-16T03:12:16.680Z,11.05
2022-08-16T03:14:47.049Z,11.07
2022-08-16T03:17:16.358Z,11.02
2022-08-16T03:19:47.900Z,11.57
2022-08-16T03:22:29.009Z,11.10
2022-08-16T03:25:07.749Z,10.65
2022-08-16T03:27:39.005Z,11.95
2022-08-16T03:30:19.094Z,10.88
2022-08-16T03:32:52.207Z,11.90
2022-08-16T03:35:32.687Z,12.32
2022-08-16T03:38:32.864Z,11.65
2022-08-16T03:40:57.425Z,11.88
2022-08-16T03:43:50.659Z,12.65
2022-08-16T03:46:47.825Z,11.13
2022-08-16T03:49:10.761Z,12.15
2022-08-16T03:51:41.123Z,11.90
2022-08-16T03:54:12.730Z,12.68
2022-08-16T03:56:57.168Z,12.88
2022-08-16T03:59:30.288Z,12.32
2022-08-16T04:02:22.041Z,12.25
2022-08-16T04:04:51.250Z,11.95
2022-08-16T04:07:18.530Z,11.18
2022-08-16T04:09:47.866Z,10.57
2022-08-16T04:12:54.823Z,10.65
2022-08-16T04:15:07.930Z,11.07
2022-08-16T04:17:38.787Z,10.90
2022-08-16T04:20:23.618Z,11.05
2022-08-16T04:25:26.485Z,10.32
2022-08-16T04:27:55.936Z,10.70
2022-08-16T04:30:31.827Z,10.07
2022-08-16T04:33:02.116Z,9.80
2022-08-16T04:35:34.611Z,10.60
2022-08-16T04:38:11.121Z,9.85
2022-08-16T04:40:50.055Z,10.35
2022-08-16T04:43:18.735Z,10.25
2022-08-16T04:45:47.344Z,10.05
2022-08-16T04:48:33.850Z,9.70
2022-08-16T04:51:11.830Z,10.02
2022-08-16T04:56:16.543Z,8.90
2022-08-16T04:58:46.825Z,9.15
2022-08-16T05:01:18.588Z,9.25
2022-08-16T05:03:59.606Z,8.73
2022-08-16T05:06:42.420Z,9.88
2022-08-16T05:09:19.291Z,9.00
2022-08-16T05:11:51.375Z,9.90
2022-08-16T05:14:20.298Z,9.88
2022-08-16T05:17:06.492Z,9.23
2022-08-16T05:19:36.031Z,9.30
2022-08-16T05:22:17.482Z,8.43
2022-08-16T05:24:46.976Z,9.15
2022-08-16T05:27:14.241Z,9.05
2022-08-16T05:30:01.059Z,8.75
2022-08-16T05:32:32.257Z,8.27
2022-08-16T05:35:05.010Z,8.85
2022-08-16T05:37:39.713Z,8.68
2022-08-16T05:40:10.354Z,8.55
2022-08-16T05:42:47.860Z,7.72
2022-08-16T05:45:22.107Z,7.45
2022-08-16T05:47:59.589Z,7.28
2022-08-16T05:50:35.020Z,7.90
2022-08-16T05:53:04.104Z,7.45
2022-08-16T05:55:40.740Z,7.63
2022-08-16T05:58:08.566Z,6.93
2022-08-16T06:00:37.114Z,8.50
2022-08-16T06:03:04.430Z,7.78
2022-08-16T06:06:08.523Z,7.13
2022-08-16T06:08:41.945Z,7.95
2022-08-16T06:11:13.339Z,8.05
2022-08-16T06:13:43.619Z,9.05
2022-08-16T06:16:18.116Z,8.80
2022-08-16T06:18:46.347Z,11.35
2022-08-16T06:21:14.501Z,13.05
2022-08-16T06:23:54.033Z,9.50
2022-08-16T06:26:22.700Z,10.40
2022-08-16T06:28:52.622Z,8.90
2022-08-16T06:31:26.303Z,9.15
2022-08-16T06:33:55.412Z,9.60
2022-08-16T06:36:24.104Z,10.07
2022-08-16T06:39:20.579Z,8.93
2022-08-16T06:41:58.820Z,8.52
2022-08-16T06:44:44.675Z,9.35
2022-08-16T06:47:52.517Z,17.70
2022-08-16T06:50:22.062Z,8.25
2022-08-16T06:53:00.277Z,12.30
2022-08-16T06:55:40.329Z,9.52
2022-08-16T06:58:22.725Z,10.68
2022-08-16T07:01:09.626Z,21.45
2022-08-16T07:03:55.542Z,11.93
2022-08-16T07:06:28.131Z,9.43
2022-08-16T07:09:00.226Z,8.20
2022-08-16T07:11:47.462Z,8.93
2022-08-16T07:14:24.789Z,10.38
2022-08-16T07:16:54.662Z,9.25
2022-08-16T07:19:22.219Z,9.10
2022-08-16T07:22:38.316Z,9.18
2022-08-16T07:24:56.970Z,8.10
2022-08-16T07:27:24.383Z,8.77
2022-08-16T07:29:55.599Z,8.65
2022-08-16T07:32:29.596Z,9.40
2022-08-16T07:34:58.974Z,11.85
2022-08-16T07:37:27.370Z,16.48
2022-08-16T07:40:11.192Z,9.45
2022-08-16T07:42:42.786Z,8.63
2022-08-16T07:45:10.666Z,22.58
2022-08-16T07:47:42.893Z,12.18
2022-08-16T07:50:57.263Z,8.43
2022-08-16T07:53:02.096Z,9.93
2022-08-16T07:55:45.858Z,9.60
2022-08-16T07:58:34.925Z,8.63
2022-08-16T08:01:10.911Z,9.15
2022-08-16T08:03:49.089Z,12.27
2022-08-16T08:06:24.926Z,10.30
2022-08-16T08:08:57.613Z,11.27
2022-08-16T08:11:28.563Z,11.65
2022-08-16T08:14:03.857Z,10.93
2022-08-16T08:19:18.546Z,17.75
2022-08-16T08:22:01.533Z,10.75
2022-08-16T08:24:48.829Z,9.60
2022-08-16T08:27:23.001Z,9.45
2022-08-16T08:30:09.236Z,9.38
2022-08-16T08:33:02.257Z,7.63
2022-08-16T08:35:34.839Z,7.75
2022-08-16T08:38:03.084Z,10.10
2022-08-16T08:40:33.829Z,7.40
2022-08-16T08:43:11.455Z,8.60
2022-08-16T08:45:52.695Z,7.55
2022-08-16T08:48:33.648Z,8.60
2022-08-16T08:51:08.941Z,6.30
2022-08-16T08:53:43.684Z,6.43
2022-08-16T08:56:23.175Z,6.68
2022-08-16T08:59:00.021Z,6.72
2022-08-16T09:01:43.199Z,8.63
2022-08-16T09:04:27.786Z,6.40
2022-08-16T09:06:56.534Z,7.43
2022-08-16T09:09:33.709Z,6.28
2022-08-16T09:12:06.777Z,6.90
2022-08-16T09:14:57.175Z,6.63
2022-08-16T09:17:49.124Z,7.40
2022-08-16T09:20:16.775Z,8.20
2022-08-16T09:22:44.342Z,8.43
2022-08-16T09:25:26.322Z,10.63
2022-08-16T09:28:09.377Z,7.85
2022-08-16T09:30:44.023Z,6.45
2022-08-16T09:33:13.667Z,7.32
2022-08-16T09:35:42.750Z,6.70
2022-08-16T09:38:12.875Z,6.43
2022-08-16T09:40:59.098Z,6.40
2022-08-16T09:43:58.037Z,22.40
2022-08-16T09:46:45.214Z,14.00
2022-08-16T09:49:03.832Z,9.45
2022-08-16T09:51:36.794Z,5.88
2022-08-16T09:54:06.068Z,6.35
2022-08-16T09:56:39.498Z,7.40
2022-08-16T09:59:23.771Z,7.00
2022-08-16T10:01:53.618Z,5.88
2022-08-16T10:04:29.359Z,5.70
2022-08-16T10:09:44.834Z,5.63
2022-08-16T10:12:31.618Z,5.22
2022-08-16T10:15:00.828Z,6.18
2022-08-16T10:17:29.442Z,5.80
2022-08-16T10:19:56.744Z,5.47
2022-08-16T10:22:24.262Z,5.97
2022-08-16T10:24:55.793Z,5.97
2022-08-16T10:27:46.977Z,7.28
2022-08-16T10:30:25.782Z,7.35
2022-08-16T10:32:56.079Z,8.73
2022-08-16T10:35:23.930Z,6.28
2022-08-16T10:38:00.284Z,10.93
2022-08-16T10:40:29.569Z,10.07
2022-08-16T10:43:00.075Z,6.32
2022-08-16T10:48:03.001Z,7.68
2022-08-16T10:50:32.617Z,6.78
2022-08-16T10:53:00.650Z,6.18
2022-08-16T10:55:41.080Z,11.35
2022-08-16T10:58:16.941Z,9.37
2022-08-16T11:00:46.135Z,6.45
2022-08-16T11:06:06.312Z,5.78
2022-08-16T11:08:38.801Z,5.88
2022-08-16T11:11:11.672Z,5.78
2022-08-16T11:14:11.509Z,7.10
2022-08-16T11:19:22.589Z,10.70
2022-08-16T11:24:42.903Z,5.80
2022-08-16T11:27:18.685Z,5.63
2022-08-16T11:29:55.739Z,6.05
2022-08-16T11:32:31.719Z,6.32
2022-08-16T11:35:14.975Z,6.30
2022-08-16T11:38:23.261Z,5.53
2022-08-16T11:40:58.737Z,11.68
2022-08-16T11:43:35.942Z,12.05
2022-08-16T11:46:42.981Z,11.10
2022-08-16T11:48:58.193Z,6.72
2022-08-16T11:51:25.610Z,5.28
2022-08-16T11:53:53.134Z,5.95
2022-08-16T11:56:39.452Z,5.05
2022-08-16T11:59:08.815Z,5.75
2022-08-16T12:01:44.473Z,5.07
2022-08-16T12:04:23.393Z,7.70
2022-08-16T12:06:53.539Z,5.93
2022-08-16T12:09:23.963Z,15.73
2022-08-16T12:11:53.017Z,6.90
2022-08-16T12:14:23.094Z,7.07
2022-08-16T12:19:33.875Z,5.50
2022-08-16T12:22:05.776Z,7.53
2022-08-16T12:24:51.057Z,7.80
2022-08-16T12:27:24.655Z,13.65
2022-08-16T12:29:52.987Z,5.78
2022-08-16T12:32:36.003Z,5.22
2022-08-16T12:35:12.062Z,5.55
2022-08-16T12:37:41.398Z,6.80
2022-08-16T12:40:24.379Z,6.57
2022-08-16T12:42:58.960Z,7.45
2022-08-16T12:45:31.963Z,9.82
2022-08-16T12:48:35.308Z,12.88
2022-08-16T12:51:13.691Z,11.40
2022-08-16T12:53:52.156Z,9.25
2022-08-16T12:56:21.107Z,8.30
2022-08-16T12:58:51.532Z,6.28
2022-08-16T13:01:26.994Z,7.55
2022-08-16T13:04:11.488Z,6.53
2022-08-16T13:06:44.329Z,5.55
2022-08-16T13:09:23.543Z,7.38
2022-08-16T13:12:20.963Z,6.18
2022-08-16T13:14:50.124Z,7.70
2022-08-16T13:17:22.011Z,5.75
2022-08-16T13:20:09.210Z,5.53
2022-08-16T13:22:42.021Z,5.22
2022-08-16T13:25:12.978Z,5.75
2022-08-16T13:28:02.461Z,4.78
2022-08-16T13:30:35.776Z,5.05
2022-08-16T13:33:10.839Z,5.80
2022-08-16T13:35:45.046Z,5.95
2022-08-16T13:38:24.773Z,5.30
2022-08-16T13:40:55.954Z,5.10
2022-08-16T13:43:27.774Z,4.70
2022-08-16T13:45:57.483Z,5.03
2022-08-16T13:48:26.131Z,4.80
2022-08-16T13:51:04.485Z,5.10
2022-08-16T13:53:32.436Z,5.35
2022-08-16T13:55:59.860Z,5.40
2022-08-16T13:58:36.611Z,5.35
2022-08-16T14:01:09.920Z,5.80
2022-08-16T14:06:11.144Z,6.88
2022-08-16T14:08:42.396Z,5.95
2022-08-16T14:11:12.371Z,6.47
2022-08-16T14:13:40.843Z,6.65
2022-08-16T14:16:12.721Z,8.18
2022-08-16T14:18:53.038Z,12.30
2022-08-16T14:21:23.751Z,23.67
2022-08-16T14:23:52.297Z,7.57
2022-08-16T14:26:21.338Z,5.88
2022-08-16T14:28:50.693Z,5.30
2022-08-16T14:31:18.937Z,4.80
2022-08-16T14:33:46.348Z,5.30
2022-08-16T14:36:18.495Z,5.20
2022-08-16T14:38:46.206Z,5.03
2022-08-16T14:41:14.178Z,4.80
2022-08-16T14:43:41.467Z,5.18
2022-08-16T14:46:08.731Z,5.00
2022-08-16T14:48:36.822Z,5.05
2022-08-16T14:51:04.136Z,5.38
2022-08-16T14:53:33.910Z,4.75
2022-08-16T14:56:01.380Z,5.07
2022-08-16T14:58:36.757Z,4.88
2022-08-16T15:01:06.461Z,5.10
2022-08-16T15:03:37.804Z,5.13
2022-08-16T15:06:05.568Z,5.28
2022-08-16T15:08:36.245Z,4.85
2022-08-16T15:11:06.182Z,4.78
2022-08-16T15:13:35.699Z,4.78
2022-08-16T15:16:04.036Z,4.85
2022-08-16T15:18:33.591Z,5.20
2022-08-16T15:21:02.389Z,4.82
2022-08-16T15:23:33.973Z,4.63
2022-08-16T15:26:03.978Z,4.57
2022-08-16T15:31:03.431Z,4.90
2022-08-16T15:33:34.754Z,4.90
2022-08-16T15:36:03.481Z,4.88
2022-08-16T15:39:02.104Z,5.55
2022-08-16T15:41:42.699Z,4.68
2022-08-16T15:44:13.448Z,5.00
2022-08-16T15:46:54.769Z,7.68
2022-08-16T15:49:34.837Z,6.38
2022-08-16T15:52:15.861Z,4.95
2022-08-16T15:54:52.774Z,4.72
2022-08-16T15:57:26.592Z,4.65
2022-08-16T15:59:56.284Z,4.50
2022-08-16T16:02:38.954Z,5.65
2022-08-16T16:05:09.580Z,5.70
2022-08-16T16:07:55.771Z,5.57
2022-08-16T16:10:26.329Z,6.03
2022-08-16T16:13:00.321Z,6.57
2022-08-16T16:15:31.626Z,7.28
2022-08-16T16:17:59.195Z,6.20
2022-08-16T16:20:32.764Z,6.85
2022-08-16T16:23:10.068Z,7.05
2022-08-16T16:25:43.889Z,7.28
2022-08-16T16:29:06.165Z,6.80
2022-08-16T16:33:34.066Z,7.63
2022-08-16T16:36:03.939Z,6.63
2022-08-16T16:38:34.894Z,6.35
2022-08-16T16:41:08.888Z,7.28
2022-08-16T16:43:40.764Z,7.90
2022-08-16T16:46:32.777Z,7.38
2022-08-16T16:48:56.097Z,7.10
2022-08-16T16:51:23.305Z,6.80
2022-08-16T16:53:56.089Z,5.93
2022-08-16T16:56:31.335Z,5.03
2022-08-16T16:59:06.644Z,5.03
2022-08-16T17:01:56.817Z,5.47
2022-08-16T17:04:31.578Z,6.00
2022-08-16T17:07:01.119Z,6.20
2022-08-16T17:09:29.409Z,5.78
2022-08-16T17:11:58.233Z,5.50
2022-08-16T17:14:33.538Z,5.50
2022-08-16T17:17:06.114Z,5.65
2022-08-16T17:19:34.037Z,6.10
2022-08-16T17:22:14.015Z,6.30
2022-08-16T17:24:50.602Z,6.50
2022-08-16T17:27:32.642Z,6.65
2022-08-16T17:30:19.366Z,6.00
2022-08-16T17:32:54.753Z,6.03
2022-08-16T17:35:33.941Z,5.20
2022-08-16T17:38:08.626Z,5.78
2022-08-16T17:40:46.122Z,6.45
2022-08-16T17:43:24.705Z,5.85
2022-08-16T17:45:52.076Z,5.93
2022-08-16T17:48:19.431Z,6.45
2022-08-16T17:50:46.777Z,5.95
2022-08-16T17:53:15.557Z,6.00
2022-08-16T17:55:47.355Z,6.50
2022-08-16T17:58:22.638Z,6.32
2022-08-16T18:00:53.165Z,6.80
2022-08-16T18:04:02.648Z,7.10
2022-08-16T18:06:17.124Z,7.90
2022-08-16T18:08:48.911Z,6.30
2022-08-16T18:11:18.903Z,6.65
2022-08-16T18:13:53.838Z,5.95
2022-08-16T18:16:21.193Z,5.50
2022-08-16T18:18:48.573Z,5.93
2022-08-16T18:21:34.489Z,8.65
2022-08-16T18:24:01.816Z,15.65
2022-08-16T18:26:29.231Z,12.27
2022-08-16T18:28:56.514Z,11.48
2022-08-16T18:31:25.110Z,8.88
2022-08-16T18:33:55.711Z,6.53
2022-08-16T18:36:25.239Z,6.57
2022-08-16T18:38:53.691Z,7.15
2022-08-16T18:41:23.280Z,6.95
2022-08-16T18:44:24.292Z,7.13
2022-08-16T18:46:40.402Z,8.20
2022-08-16T18:49:07.791Z,6.45
2022-08-16T18:51:36.884Z,7.40
2022-08-16T18:54:05.044Z,7.25
2022-08-16T18:56:55.610Z,8.85
2022-08-16T18:59:19.804Z,7.43
2022-08-16T19:01:47.519Z,7.30
2022-08-16T19:04:57.437Z,6.70
2022-08-16T19:07:02.641Z,8.13
2022-08-16T19:09:30.170Z,6.80
2022-08-16T19:11:57.577Z,6.57
2022-08-16T19:14:29.971Z,7.35
2022-08-16T19:16:57.432Z,7.80
2022-08-16T19:19:31.566Z,7.38
2022-08-16T19:21:59.027Z,8.10
2022-08-16T19:24:29.285Z,8.55
2022-08-16T19:26:57.188Z,9.43
2022-08-16T19:29:24.924Z,9.90
2022-08-16T19:31:52.360Z,8.52
2022-08-16T19:34:19.585Z,8.63
2022-08-16T19:36:47.524Z,7.60
2022-08-16T19:39:17.171Z,7.60
2022-08-16T19:41:53.557Z,8.13
2022-08-16T19:44:22.383Z,8.57
2022-08-16T19:46:50.468Z,8.38
2022-08-16T19:49:18.064Z,8.13
2022-08-16T19:51:47.071Z,13.32
2022-08-16T19:54:14.902Z,10.95
2022-08-16T19:56:42.341Z,10.20
2022-08-16T19:59:19.297Z,9.25
2022-08-16T20:01:50.060Z,9.90
2022-08-16T20:04:17.313Z,10.20
2022-08-16T20:06:44.757Z,10.57
2022-08-16T20:09:14.473Z,10.30
2022-08-16T20:11:47.044Z,10.57
2022-08-16T20:14:23.985Z,10.40
2022-08-16T20:16:55.662Z,10.60
2022-08-16T20:19:23.318Z,11.10
2022-08-16T20:21:50.747Z,12.13
2022-08-16T20:24:35.664Z,13.60
2022-08-16T20:27:06.451Z,11.93
2022-08-16T20:29:34.111Z,11.95
2022-08-16T20:32:02.334Z,11.48
2022-08-16T20:34:29.658Z,11.85
2022-08-16T20:36:57.042Z,13.02
2022-08-16T20:39:24.574Z,12.82
2022-08-16T20:41:51.909Z,12.48
2022-08-16T20:44:23.017Z,14.32
2022-08-16T20:46:52.494Z,13.63
2022-08-16T20:49:19.636Z,15.73
2022-08-16T20:51:50.954Z,17.15
2022-08-16T20:54:19.868Z,16.13
2022-08-16T20:56:47.054Z,15.15
2022-08-16T20:59:14.576Z,13.85
2022-08-16T21:01:47.004Z,13.20
2022-08-16T21:04:24.508Z,13.25
2022-08-16T21:06:54.432Z,13.98
2022-08-16T21:09:27.083Z,13.30
2022-08-16T21:11:56.185Z,12.48
2022-08-16T21:14:23.940Z,12.18
2022-08-16T21:16:51.367Z,12.55
2022-08-16T21:19:21.559Z,12.05
2022-08-16T21:21:49.359Z,12.52
2022-08-16T21:24:17.103Z,12.15
2022-08-16T21:26:55.605Z,11.52
2022-08-16T21:29:31.661Z,11.63
2022-08-16T21:32:18.397Z,12.38
2022-08-16T21:34:45.684Z,12.35
2022-08-16T21:37:15.551Z,12.52
2022-08-16T21:42:13.357Z,11.85
2022-08-16T21:44:40.863Z,12.32
2022-08-16T21:47:08.370Z,12.40
2022-08-16T21:49:36.890Z,11.80
2022-08-16T21:52:05.771Z,11.85
2022-08-16T21:54:33.235Z,11.95
2022-08-16T21:57:00.537Z,13.75
2022-08-16T21:59:27.833Z,12.50
2022-08-16T22:01:55.250Z,13.07
2022-08-16T22:04:37.786Z,9.45
2022-08-16T22:07:07.038Z,8.15
2022-08-16T22:09:34.366Z,7.60
2022-08-16T22:12:01.741Z,7.57
2022-08-16T22:14:29.028Z,7.35
2022-08-16T22:16:56.577Z,7.78
2022-08-16T22:19:24.042Z,7.53
2022-08-16T22:21:51.649Z,7.20
2022-08-16T22:24:18.864Z,7.57
2022-08-16T22:26:46.173Z,8.10
2022-08-16T22:29:14.986Z,8.55
2022-08-16T22:31:43.497Z,8.02
2022-08-16T22:34:11.219Z,8.82
2022-08-16T22:36:38.937Z,9.43
2022-08-16T22:39:10.632Z,9.55
2022-08-16T22:41:39.563Z,10.73
2022-08-16T22:44:07.733Z,10.45
2022-08-16T22:46:36.621Z,9.85
2022-08-16T22:49:05.939Z,12.23
2022-08-16T22:51:33.738Z,13.70
2022-08-16T22:54:01.306Z,12.70
2022-08-16T22:56:48.746Z,13.52
2022-08-16T22:59:15.951Z,13.13
2022-08-16T23:01:43.989Z,14.02
2022-08-16T23:04:11.380Z,12.90
2022-08-16T23:06:38.781Z,13.48
2022-08-16T23:09:06.049Z,12.55
2022-08-16T23:11:33.393Z,12.95
2022-08-16T23:14:00.647Z,12.50
2022-08-16T23:16:33.009Z,12.15
2022-08-16T23:19:08.404Z,11.88
2022-08-16T23:21:37.697Z,12.40
2022-08-16T23:24:06.068Z,12.50
2022-08-16T23:26:45.037Z,12.18
2022-08-16T23:29:23.771Z,13.05
2022-08-16T23:31:58.763Z,13.85
2022-08-16T23:34:28.118Z,12.55
2022-08-16T23:36:55.668Z,12.27
2022-08-16T23:39:23.905Z,12.13
2022-08-16T23:41:52.408Z,12.43
2022-08-16T23:44:56.254Z,12.68
2022-08-16T23:47:07.211Z,12.50
2022-08-16T23:49:58.988Z,12.32
2022-08-16T23:52:39.398Z,13.23
2022-08-16T23:55:09.302Z,12.77
2022-08-16T23:57:37.474Z,12.45
